Terminal Aerodrome Forecast
Issued by NWS

Home | Current Version | Previous Version | Text Only | Print | Product List | Glossary On
Versions: 1 2 3 4 5 6 7 8 9 10 11 12 13 14
000
FTUS45 KRIW 291700
TAFLND
TAF
KLND 291720Z 2918/3018 30007KT P6SM VCTS SCT050CB BKN110
     FM292000 03010G15KT P6SM VCTS SCT040CB OVC070
     FM300100 04008KT P6SM -SHRA SCT040 OVC070
     FM300300 VRB05KT P6SM VCSH BKN100
     FM300900 VRB05KT P6SM SCT100 BKN150=

USA.gov is the U.S. government's official web portal to all federal, state and local government web resources and services.